sensor_id;sensor_type;location;lat;lon;timestamp;temperature;humidity
69208;SHT31;70114;47.690;8.898;2024-03-29T00:01:14;5.73;65.12
69208;SHT31;70114;47.690;8.898;2024-03-29T00:03:39;5.87;64.62
69208;SHT31;70114;47.690;8.898;2024-03-29T00:06:04;5.93;64.86
69208;SHT31;70114;47.690;8.898;2024-03-29T00:08:30;5.96;65.22
69208;SHT31;70114;47.690;8.898;2024-03-29T00:10:55;5.93;65.79
69208;SHT31;70114;47.690;8.898;2024-03-29T00:13:21;6.02;65.49
69208;SHT31;70114;47.690;8.898;2024-03-29T00:15:46;6.04;65.75
69208;SHT31;70114;47.690;8.898;2024-03-29T00:18:11;6.09;66.51
69208;SHT31;70114;47.690;8.898;2024-03-29T00:20:37;6.13;66.71
69208;SHT31;70114;47.690;8.898;2024-03-29T00:23:02;6.16;66.83
69208;SHT31;70114;47.690;8.898;2024-03-29T00:25:27;6.06;67.19
69208;SHT31;70114;47.690;8.898;2024-03-29T00:27:53;5.85;68.07
69208;SHT31;70114;47.690;8.898;2024-03-29T00:30:18;6.00;67.22
69208;SHT31;70114;47.690;8.898;2024-03-29T00:32:44;6.00;67.37
69208;SHT31;70114;47.690;8.898;2024-03-29T00:35:09;6.03;67.72
69208;SHT31;70114;47.690;8.898;2024-03-29T00:37:34;5.90;68.04
69208;SHT31;70114;47.690;8.898;2024-03-29T00:40:00;5.89;68.14
69208;SHT31;70114;47.690;8.898;2024-03-29T00:42:25;5.93;67.80
69208;SHT31;70114;47.690;8.898;2024-03-29T00:44:51;5.86;68.00
69208;SHT31;70114;47.690;8.898;2024-03-29T00:47:16;5.69;70.41
69208;SHT31;70114;47.690;8.898;2024-03-29T00:49:41;5.82;69.07
69208;SHT31;70114;47.690;8.898;2024-03-29T00:52:07;5.75;69.70
69208;SHT31;70114;47.690;8.898;2024-03-29T00:54:32;5.79;69.80
69208;SHT31;70114;47.690;8.898;2024-03-29T00:56:58;5.77;69.80
69208;SHT31;70114;47.690;8.898;2024-03-29T00:59:23;5.82;69.52
69208;SHT31;70114;47.690;8.898;2024-03-29T01:01:49;5.86;69.43
69208;SHT31;70114;47.690;8.898;2024-03-29T01:04:15;5.85;69.61
69208;SHT31;70114;47.690;8.898;2024-03-29T01:06:40;5.63;71.15
69208;SHT31;70114;47.690;8.898;2024-03-29T01:09:06;5.69;70.06
69208;SHT31;70114;47.690;8.898;2024-03-29T01:11:31;5.68;70.03
69208;SHT31;70114;47.690;8.898;2024-03-29T01:13:57;5.73;70.03
69208;SHT31;70114;47.690;8.898;2024-03-29T01:16:23;5.76;70.29
69208;SHT31;70114;47.690;8.898;2024-03-29T01:18:49;5.72;70.50
69208;SHT31;70114;47.690;8.898;2024-03-29T01:21:14;5.48;72.25
69208;SHT31;70114;47.690;8.898;2024-03-29T01:23:40;5.65;70.93
69208;SHT31;70114;47.690;8.898;2024-03-29T01:26:06;5.54;71.08
69208;SHT31;70114;47.690;8.898;2024-03-29T01:28:32;5.34;72.30
69208;SHT31;70114;47.690;8.898;2024-03-29T01:30:57;5.41;71.85
69208;SHT31;70114;47.690;8.898;2024-03-29T01:33:25;5.38;71.85
69208;SHT31;70114;47.690;8.898;2024-03-29T01:35:51;5.32;71.90
69208;SHT31;70114;47.690;8.898;2024-03-29T01:38:17;5.28;72.37
69208;SHT31;70114;47.690;8.898;2024-03-29T01:40:43;5.31;73.60
69208;SHT31;70114;47.690;8.898;2024-03-29T01:43:08;5.26;74.99
69208;SHT31;70114;47.690;8.898;2024-03-29T01:45:41;5.21;75.32
69208;SHT31;70114;47.690;8.898;2024-03-29T01:48:07;5.13;75.89
69208;SHT31;70114;47.690;8.898;2024-03-29T01:50:34;5.10;76.53
69208;SHT31;70114;47.690;8.898;2024-03-29T01:53:00;5.26;75.88
69208;SHT31;70114;47.690;8.898;2024-03-29T01:55:26;5.26;77.02
69208;SHT31;70114;47.690;8.898;2024-03-29T01:57:52;5.42;75.75
69208;SHT31;70114;47.690;8.898;2024-03-29T02:00:18;5.42;75.45
69208;SHT31;70114;47.690;8.898;2024-03-29T02:02:44;5.54;74.98
69208;SHT31;70114;47.690;8.898;2024-03-29T02:05:10;5.59;74.70
69208;SHT31;70114;47.690;8.898;2024-03-29T02:07:36;5.55;74.82
69208;SHT31;70114;47.690;8.898;2024-03-29T02:10:02;5.56;74.50
69208;SHT31;70114;47.690;8.898;2024-03-29T02:12:28;5.44;76.31
69208;SHT31;70114;47.690;8.898;2024-03-29T02:14:54;5.52;74.55
69208;SHT31;70114;47.690;8.898;2024-03-29T02:17:19;5.45;74.70
69208;SHT31;70114;47.690;8.898;2024-03-29T02:19:44;5.48;74.36
69208;SHT31;70114;47.690;8.898;2024-03-29T02:22:14;5.20;77.23
69208;SHT31;70114;47.690;8.898;2024-03-29T02:24:40;5.21;77.06
69208;SHT31;70114;47.690;8.898;2024-03-29T02:27:05;5.32;76.20
69208;SHT31;70114;47.690;8.898;2024-03-29T02:29:31;5.31;75.54
69208;SHT31;70114;47.690;8.898;2024-03-29T02:31:56;5.28;75.68
69208;SHT31;70114;47.690;8.898;2024-03-29T02:34:21;4.91;77.33
69208;SHT31;70114;47.690;8.898;2024-03-29T02:36:48;5.08;76.33
69208;SHT31;70114;47.690;8.898;2024-03-29T02:39:14;4.93;77.03
69208;SHT31;70114;47.690;8.898;2024-03-29T02:41:39;5.10;75.88
69208;SHT31;70114;47.690;8.898;2024-03-29T02:44:04;5.13;75.46
69208;SHT31;70114;47.690;8.898;2024-03-29T02:46:30;5.11;75.79
69208;SHT31;70114;47.690;8.898;2024-03-29T02:48:55;5.04;75.65
69208;SHT31;70114;47.690;8.898;2024-03-29T02:51:21;4.93;76.30
69208;SHT31;70114;47.690;8.898;2024-03-29T02:53:46;5.04;75.33
69208;SHT31;70114;47.690;8.898;2024-03-29T02:56:12;4.94;75.79
69208;SHT31;70114;47.690;8.898;2024-03-29T02:58:39;5.06;74.69
69208;SHT31;70114;47.690;8.898;2024-03-29T03:01:06;4.97;74.95
69208;SHT31;70114;47.690;8.898;2024-03-29T03:03:31;4.94;75.11
69208;SHT31;70114;47.690;8.898;2024-03-29T03:05:57;4.99;74.93
69208;SHT31;70114;47.690;8.898;2024-03-29T03:08:22;5.06;74.97
69208;SHT31;70114;47.690;8.898;2024-03-29T03:11:06;5.13;74.51
69208;SHT31;70114;47.690;8.898;2024-03-29T03:13:32;5.11;74.51
69208;SHT31;70114;47.690;8.898;2024-03-29T03:15:57;5.01;75.59
69208;SHT31;70114;47.690;8.898;2024-03-29T03:18:22;5.11;74.72
69208;SHT31;70114;47.690;8.898;2024-03-29T03:20:52;5.13;74.84
69208;SHT31;70114;47.690;8.898;2024-03-29T03:23:18;5.07;74.98
69208;SHT31;70114;47.690;8.898;2024-03-29T03:25:44;5.08;74.94
69208;SHT31;70114;47.690;8.898;2024-03-29T03:28:09;5.08;75.49
69208;SHT31;70114;47.690;8.898;2024-03-29T03:30:40;5.16;75.40
69208;SHT31;70114;47.690;8.898;2024-03-29T03:33:06;4.94;76.47
69208;SHT31;70114;47.690;8.898;2024-03-29T03:35:31;5.10;75.59
69208;SHT31;70114;47.690;8.898;2024-03-29T03:37:57;5.20;75.17
69208;SHT31;70114;47.690;8.898;2024-03-29T03:40:22;5.26;74.99
69208;SHT31;70114;47.690;8.898;2024-03-29T03:42:47;5.32;74.84
69208;SHT31;70114;47.690;8.898;2024-03-29T03:45:13;5.31;75.68
69208;SHT31;70114;47.690;8.898;2024-03-29T03:47:40;5.35;75.56
69208;SHT31;70114;47.690;8.898;2024-03-29T03:50:05;5.41;75.98
69208;SHT31;70114;47.690;8.898;2024-03-29T03:52:31;5.47;76.04
69208;SHT31;70114;47.690;8.898;2024-03-29T03:54:56;5.54;75.77
69208;SHT31;70114;47.690;8.898;2024-03-29T03:57:21;5.44;76.17
69208;SHT31;70114;47.690;8.898;2024-03-29T03:59:49;5.49;76.66
69208;SHT31;70114;47.690;8.898;2024-03-29T04:02:14;5.54;76.51
69208;SHT31;70114;47.690;8.898;2024-03-29T04:04:40;5.49;77.07
69208;SHT31;70114;47.690;8.898;2024-03-29T04:07:05;5.54;77.07
69208;SHT31;70114;47.690;8.898;2024-03-29T04:09:31;5.51;77.77
69208;SHT31;70114;47.690;8.898;2024-03-29T04:11:56;5.59;76.71
69208;SHT31;70114;47.690;8.898;2024-03-29T04:14:21;5.62;76.54
69208;SHT31;70114;47.690;8.898;2024-03-29T04:16:47;5.51;77.98
69208;SHT31;70114;47.690;8.898;2024-03-29T04:19:12;5.54;78.25
69208;SHT31;70114;47.690;8.898;2024-03-29T04:21:37;5.63;77.35
69208;SHT31;70114;47.690;8.898;2024-03-29T04:24:03;5.56;77.41
69208;SHT31;70114;47.690;8.898;2024-03-29T04:26:28;5.59;77.68
69208;SHT31;70114;47.690;8.898;2024-03-29T04:28:54;5.70;77.18
69208;SHT31;70114;47.690;8.898;2024-03-29T04:31:19;5.82;77.02
69208;SHT31;70114;47.690;8.898;2024-03-29T04:33:44;5.86;76.24
69208;SHT31;70114;47.690;8.898;2024-03-29T04:36:10;5.72;77.09
69208;SHT31;70114;47.690;8.898;2024-03-29T04:38:35;5.77;75.62
69208;SHT31;70114;47.690;8.898;2024-03-29T04:41:01;5.92;74.07
69208;SHT31;70114;47.690;8.898;2024-03-29T04:43:28;5.93;74.15
69208;SHT31;70114;47.690;8.898;2024-03-29T04:46:03;5.97;73.90
69208;SHT31;70114;47.690;8.898;2024-03-29T04:48:30;6.02;73.88
69208;SHT31;70114;47.690;8.898;2024-03-29T04:50:56;6.09;73.51
69208;SHT31;70114;47.690;8.898;2024-03-29T04:53:22;6.02;73.00
69208;SHT31;70114;47.690;8.898;2024-03-29T04:55:53;6.14;72.87
69208;SHT31;70114;47.690;8.898;2024-03-29T04:58:19;6.17;73.11
69208;SHT31;70114;47.690;8.898;2024-03-29T05:00:44;6.20;73.15
69208;SHT31;70114;47.690;8.898;2024-03-29T05:03:09;6.24;73.18
69208;SHT31;70114;47.690;8.898;2024-03-29T05:05:35;6.09;74.24
69208;SHT31;70114;47.690;8.898;2024-03-29T05:08:00;6.24;73.57
69208;SHT31;70114;47.690;8.898;2024-03-29T05:10:25;6.23;73.26
69208;SHT31;70114;47.690;8.898;2024-03-29T05:12:51;6.21;73.56
69208;SHT31;70114;47.690;8.898;2024-03-29T05:15:16;6.33;72.89
69208;SHT31;70114;47.690;8.898;2024-03-29T05:17:41;6.38;72.91
69208;SHT31;70114;47.690;8.898;2024-03-29T05:20:07;6.30;72.08
69208;SHT31;70114;47.690;8.898;2024-03-29T05:22:34;6.41;70.60
69208;SHT31;70114;47.690;8.898;2024-03-29T05:24:59;6.44;71.06
69208;SHT31;70114;47.690;8.898;2024-03-29T05:27:24;6.48;70.91
69208;SHT31;70114;47.690;8.898;2024-03-29T05:29:50;6.55;71.45
69208;SHT31;70114;47.690;8.898;2024-03-29T05:32:15;6.56;72.04
69208;SHT31;70114;47.690;8.898;2024-03-29T05:34:40;6.64;72.13
69208;SHT31;70114;47.690;8.898;2024-03-29T05:37:06;6.69;71.95
69208;SHT31;70114;47.690;8.898;2024-03-29T05:39:33;6.54;72.83
69208;SHT31;70114;47.690;8.898;2024-03-29T05:41:58;6.64;72.01
69208;SHT31;70114;47.690;8.898;2024-03-29T05:44:24;6.73;72.03
69208;SHT31;70114;47.690;8.898;2024-03-29T05:46:49;6.83;72.13
69208;SHT31;70114;47.690;8.898;2024-03-29T05:49:16;6.92;71.91
69208;SHT31;70114;47.690;8.898;2024-03-29T05:51:42;6.96;72.25
69208;SHT31;70114;47.690;8.898;2024-03-29T05:54:07;7.02;71.88
69208;SHT31;70114;47.690;8.898;2024-03-29T05:56:32;7.06;70.35
69208;SHT31;70114;47.690;8.898;2024-03-29T05:58:58;7.07;69.40
69208;SHT31;70114;47.690;8.898;2024-03-29T06:01:23;7.24;69.35
69208;SHT31;70114;47.690;8.898;2024-03-29T06:03:49;7.37;69.02
69208;SHT31;70114;47.690;8.898;2024-03-29T06:06:19;7.34;68.77
69208;SHT31;70114;47.690;8.898;2024-03-29T06:08:49;7.43;67.67
69208;SHT31;70114;47.690;8.898;2024-03-29T06:11:14;7.50;68.15
69208;SHT31;70114;47.690;8.898;2024-03-29T06:13:39;7.65;67.33
69208;SHT31;70114;47.690;8.898;2024-03-29T06:16:27;7.75;67.97
69208;SHT31;70114;47.690;8.898;2024-03-29T06:19:11;7.82;70.09
69208;SHT31;70114;47.690;8.898;2024-03-29T06:21:37;7.81;71.14
69208;SHT31;70114;47.690;8.898;2024-03-29T06:24:10;8.02;70.10
69208;SHT31;70114;47.690;8.898;2024-03-29T06:26:40;8.12;70.27
69208;SHT31;70114;47.690;8.898;2024-03-29T06:29:05;8.20;69.99
69208;SHT31;70114;47.690;8.898;2024-03-29T06:31:31;8.30;70.16
69208;SHT31;70114;47.690;8.898;2024-03-29T06:34:00;8.37;69.69
69208;SHT31;70114;47.690;8.898;2024-03-29T06:36:25;8.50;69.77
69208;SHT31;70114;47.690;8.898;2024-03-29T06:38:51;8.54;69.72
69208;SHT31;70114;47.690;8.898;2024-03-29T06:41:17;8.65;69.40
69208;SHT31;70114;47.690;8.898;2024-03-29T06:43:42;8.75;69.66
69208;SHT31;70114;47.690;8.898;2024-03-29T06:46:11;8.85;69.35
69208;SHT31;70114;47.690;8.898;2024-03-29T06:48:37;8.88;69.27
69208;SHT31;70114;47.690;8.898;2024-03-29T06:51:03;8.88;68.74
69208;SHT31;70114;47.690;8.898;2024-03-29T06:53:28;9.01;68.45
69208;SHT31;70114;47.690;8.898;2024-03-29T06:55:59;9.18;68.17
69208;SHT31;70114;47.690;8.898;2024-03-29T06:58:24;9.30;68.04
69208;SHT31;70114;47.690;8.898;2024-03-29T07:00:50;9.41;68.38
69208;SHT31;70114;47.690;8.898;2024-03-29T07:03:16;9.50;67.36
69208;SHT31;70114;47.690;8.898;2024-03-29T07:05:44;9.57;67.54
69208;SHT31;70114;47.690;8.898;2024-03-29T07:08:09;9.71;67.98
69208;SHT31;70114;47.690;8.898;2024-03-29T07:10:34;9.79;68.07
69208;SHT31;70114;47.690;8.898;2024-03-29T07:13:00;9.92;68.03
69208;SHT31;70114;47.690;8.898;2024-03-29T07:15:25;9.95;68.65
69208;SHT31;70114;47.690;8.898;2024-03-29T07:17:51;10.06;69.13
69208;SHT31;70114;47.690;8.898;2024-03-29T07:20:17;10.09;68.92
69208;SHT31;70114;47.690;8.898;2024-03-29T07:22:43;10.23;68.24
69208;SHT31;70114;47.690;8.898;2024-03-29T07:25:10;10.39;68.18
69208;SHT31;70114;47.690;8.898;2024-03-29T07:27:35;10.59;68.26
69208;SHT31;70114;47.690;8.898;2024-03-29T07:30:04;10.74;62.39
69208;SHT31;70114;47.690;8.898;2024-03-29T07:32:32;10.93;61.54
69208;SHT31;70114;47.690;8.898;2024-03-29T07:34:58;11.04;60.86
69208;SHT31;70114;47.690;8.898;2024-03-29T07:37:24;11.23;62.53
69208;SHT31;70114;47.690;8.898;2024-03-29T07:39:50;11.53;57.86
69208;SHT31;70114;47.690;8.898;2024-03-29T07:42:15;11.73;55.61
69208;SHT31;70114;47.690;8.898;2024-03-29T07:44:41;11.88;52.38
69208;SHT31;70114;47.690;8.898;2024-03-29T07:47:07;12.00;52.09
69208;SHT31;70114;47.690;8.898;2024-03-29T07:49:32;12.14;50.53
69208;SHT31;70114;47.690;8.898;2024-03-29T07:51:58;12.28;50.25
69208;SHT31;70114;47.690;8.898;2024-03-29T07:54:24;12.45;50.65
69208;SHT31;70114;47.690;8.898;2024-03-29T07:56:49;12.59;49.29
69208;SHT31;70114;47.690;8.898;2024-03-29T07:59:15;12.72;49.96
69208;SHT31;70114;47.690;8.898;2024-03-29T08:01:44;12.73;50.67
69208;SHT31;70114;47.690;8.898;2024-03-29T08:04:09;12.59;54.51
69208;SHT31;70114;47.690;8.898;2024-03-29T08:06:35;12.41;60.54
69208;SHT31;70114;47.690;8.898;2024-03-29T08:09:00;12.11;60.15
69208;SHT31;70114;47.690;8.898;2024-03-29T08:11:26;12.28;60.90
69208;SHT31;70114;47.690;8.898;2024-03-29T08:13:51;12.36;59.75
69208;SHT31;70114;47.690;8.898;2024-03-29T08:16:17;12.65;59.95
69208;SHT31;70114;47.690;8.898;2024-03-29T08:18:45;12.28;62.72
69208;SHT31;70114;47.690;8.898;2024-03-29T08:21:10;11.84;64.01
69208;SHT31;70114;47.690;8.898;2024-03-29T08:23:41;12.00;62.27
69208;SHT31;70114;47.690;8.898;2024-03-29T08:26:10;12.01;59.19
69208;SHT31;70114;47.690;8.898;2024-03-29T08:28:35;11.94;56.57
69208;SHT31;70114;47.690;8.898;2024-03-29T08:31:05;12.05;55.63
69208;SHT31;70114;47.690;8.898;2024-03-29T08:33:34;12.27;55.90
69208;SHT31;70114;47.690;8.898;2024-03-29T08:36:05;12.07;53.53
69208;SHT31;70114;47.690;8.898;2024-03-29T08:38:31;12.31;53.60
69208;SHT31;70114;47.690;8.898;2024-03-29T08:40:56;12.63;53.44
69208;SHT31;70114;47.690;8.898;2024-03-29T08:43:22;12.89;53.73
69208;SHT31;70114;47.690;8.898;2024-03-29T08:45:47;13.07;53.61
69208;SHT31;70114;47.690;8.898;2024-03-29T08:48:13;13.34;53.82
69208;SHT31;70114;47.690;8.898;2024-03-29T08:50:38;13.61;55.34
69208;SHT31;70114;47.690;8.898;2024-03-29T08:53:05;13.75;52.02
69208;SHT31;70114;47.690;8.898;2024-03-29T08:55:31;13.97;50.79
69208;SHT31;70114;47.690;8.898;2024-03-29T08:58:00;14.03;50.60
69208;SHT31;70114;47.690;8.898;2024-03-29T09:00:27;14.18;51.54
69208;SHT31;70114;47.690;8.898;2024-03-29T09:02:52;14.02;50.51
69208;SHT31;70114;47.690;8.898;2024-03-29T09:05:18;13.89;51.79
69208;SHT31;70114;47.690;8.898;2024-03-29T09:07:43;14.00;51.38
69208;SHT31;70114;47.690;8.898;2024-03-29T09:10:09;13.91;48.18
69208;SHT31;70114;47.690;8.898;2024-03-29T09:12:34;13.96;48.57
69208;SHT31;70114;47.690;8.898;2024-03-29T09:15:00;14.26;49.65
69208;SHT31;70114;47.690;8.898;2024-03-29T09:17:26;14.55;51.35
69208;SHT31;70114;47.690;8.898;2024-03-29T09:19:52;14.75;49.01
69208;SHT31;70114;47.690;8.898;2024-03-29T09:22:18;15.06;47.24
69208;SHT31;70114;47.690;8.898;2024-03-29T09:24:44;15.36;44.35
69208;SHT31;70114;47.690;8.898;2024-03-29T09:27:09;15.61;46.52
69208;SHT31;70114;47.690;8.898;2024-03-29T09:29:34;15.89;47.45
69208;SHT31;70114;47.690;8.898;2024-03-29T09:32:00;16.05;46.34
69208;SHT31;70114;47.690;8.898;2024-03-29T09:34:27;16.29;44.99
69208;SHT31;70114;47.690;8.898;2024-03-29T09:36:53;16.36;42.61
69208;SHT31;70114;47.690;8.898;2024-03-29T09:39:18;16.56;42.90
69208;SHT31;70114;47.690;8.898;2024-03-29T09:41:47;16.45;42.88
69208;SHT31;70114;47.690;8.898;2024-03-29T09:44:12;16.60;42.18
69208;SHT31;70114;47.690;8.898;2024-03-29T09:46:38;16.59;41.86
69208;SHT31;70114;47.690;8.898;2024-03-29T09:49:06;16.50;40.70
69208;SHT31;70114;47.690;8.898;2024-03-29T09:51:32;16.66;42.01
69208;SHT31;70114;47.690;8.898;2024-03-29T09:53:59;16.70;45.23
69208;SHT31;70114;47.690;8.898;2024-03-29T09:56:27;17.00;45.97
69208;SHT31;70114;47.690;8.898;2024-03-29T09:58:53;17.11;47.64
69208;SHT31;70114;47.690;8.898;2024-03-29T10:01:19;17.05;48.54
69208;SHT31;70114;47.690;8.898;2024-03-29T10:03:49;17.15;48.86
69208;SHT31;70114;47.690;8.898;2024-03-29T10:06:18;17.36;47.61
69208;SHT31;70114;47.690;8.898;2024-03-29T10:08:45;17.33;44.70
69208;SHT31;70114;47.690;8.898;2024-03-29T10:11:10;17.66;41.87
69208;SHT31;70114;47.690;8.898;2024-03-29T10:13:36;17.94;41.48
69208;SHT31;70114;47.690;8.898;2024-03-29T10:16:03;17.97;40.01
69208;SHT31;70114;47.690;8.898;2024-03-29T10:18:29;18.04;39.60
69208;SHT31;70114;47.690;8.898;2024-03-29T10:21:04;18.21;38.91
69208;SHT31;70114;47.690;8.898;2024-03-29T10:23:31;18.08;43.10
69208;SHT31;70114;47.690;8.898;2024-03-29T10:25:57;17.98;42.13
69208;SHT31;70114;47.690;8.898;2024-03-29T10:28:23;17.84;42.24
69208;SHT31;70114;47.690;8.898;2024-03-29T10:30:49;17.94;42.44
69208;SHT31;70114;47.690;8.898;2024-03-29T10:33:15;18.19;40.78
69208;SHT31;70114;47.690;8.898;2024-03-29T10:35:44;18.35;40.54
69208;SHT31;70114;47.690;8.898;2024-03-29T10:38:10;18.39;38.81
69208;SHT31;70114;47.690;8.898;2024-03-29T10:40:39;18.52;38.59
69208;SHT31;70114;47.690;8.898;2024-03-29T10:43:10;18.56;39.85
69208;SHT31;70114;47.690;8.898;2024-03-29T10:45:38;18.45;40.72
69208;SHT31;70114;47.690;8.898;2024-03-29T10:48:04;18.31;40.51
69208;SHT31;70114;47.690;8.898;2024-03-29T10:50:37;18.36;41.57
69208;SHT31;70114;47.690;8.898;2024-03-29T10:53:05;18.19;41.44
69208;SHT31;70114;47.690;8.898;2024-03-29T10:55:33;17.96;40.57
69208;SHT31;70114;47.690;8.898;2024-03-29T10:58:00;18.07;42.43
69208;SHT31;70114;47.690;8.898;2024-03-29T11:00:28;18.00;42.61
69208;SHT31;70114;47.690;8.898;2024-03-29T11:05:42;18.07;41.30
69208;SHT31;70114;47.690;8.898;2024-03-29T11:08:09;18.07;41.48
69208;SHT31;70114;47.690;8.898;2024-03-29T11:10:45;18.11;42.25
69208;SHT31;70114;47.690;8.898;2024-03-29T11:15:57;18.24;44.36
69208;SHT31;70114;47.690;8.898;2024-03-29T11:18:26;18.09;45.65
69208;SHT31;70114;47.690;8.898;2024-03-29T11:20:53;18.44;45.39
69208;SHT31;70114;47.690;8.898;2024-03-29T11:23:20;18.46;46.14
69208;SHT31;70114;47.690;8.898;2024-03-29T11:25:50;18.34;46.23
69208;SHT31;70114;47.690;8.898;2024-03-29T11:28:26;18.57;46.54
69208;SHT31;70114;47.690;8.898;2024-03-29T11:30:57;18.57;45.66
69208;SHT31;70114;47.690;8.898;2024-03-29T11:35:59;18.69;44.44
69208;SHT31;70114;47.690;8.898;2024-03-29T11:38:35;18.84;43.09
69208;SHT31;70114;47.690;8.898;2024-03-29T11:41:10;19.02;43.98
69208;SHT31;70114;47.690;8.898;2024-03-29T11:43:36;19.00;41.90
69208;SHT31;70114;47.690;8.898;2024-03-29T11:46:07;19.17;41.97
69208;SHT31;70114;47.690;8.898;2024-03-29T11:48:34;19.38;43.07
69208;SHT31;70114;47.690;8.898;2024-03-29T11:51:01;19.48;41.69
69208;SHT31;70114;47.690;8.898;2024-03-29T11:53:27;19.47;42.43
69208;SHT31;70114;47.690;8.898;2024-03-29T11:55:53;19.51;43.69
69208;SHT31;70114;47.690;8.898;2024-03-29T11:58:23;19.63;42.67
69208;SHT31;70114;47.690;8.898;2024-03-29T12:00:49;19.59;44.16
69208;SHT31;70114;47.690;8.898;2024-03-29T12:03:16;19.58;41.58
69208;SHT31;70114;47.690;8.898;2024-03-29T12:05:42;19.82;42.57
69208;SHT31;70114;47.690;8.898;2024-03-29T12:08:09;19.94;40.78
69208;SHT31;70114;47.690;8.898;2024-03-29T12:10:35;20.12;40.25
69208;SHT31;70114;47.690;8.898;2024-03-29T12:13:01;20.36;40.31
69208;SHT31;70114;47.690;8.898;2024-03-29T12:15:28;20.59;40.41
69208;SHT31;70114;47.690;8.898;2024-03-29T12:18:04;20.74;40.14
69208;SHT31;70114;47.690;8.898;2024-03-29T12:20:33;21.02;39.56
69208;SHT31;70114;47.690;8.898;2024-03-29T12:23:00;21.29;40.67
69208;SHT31;70114;47.690;8.898;2024-03-29T12:25:28;21.33;38.38
69208;SHT31;70114;47.690;8.898;2024-03-29T12:27:54;21.07;39.26
69208;SHT31;70114;47.690;8.898;2024-03-29T12:30:19;20.93;38.92
69208;SHT31;70114;47.690;8.898;2024-03-29T12:32:45;21.26;39.65
69208;SHT31;70114;47.690;8.898;2024-03-29T12:35:12;21.49;39.73
69208;SHT31;70114;47.690;8.898;2024-03-29T12:37:38;21.74;39.90
69208;SHT31;70114;47.690;8.898;2024-03-29T12:40:07;21.44;38.29
69208;SHT31;70114;47.690;8.898;2024-03-29T12:42:40;21.94;39.66
69208;SHT31;70114;47.690;8.898;2024-03-29T12:45:07;21.79;39.65
69208;SHT31;70114;47.690;8.898;2024-03-29T12:47:35;21.70;39.21
69208;SHT31;70114;47.690;8.898;2024-03-29T12:50:02;21.79;40.64
69208;SHT31;70114;47.690;8.898;2024-03-29T12:52:39;21.78;40.30
69208;SHT31;70114;47.690;8.898;2024-03-29T12:55:04;21.46;41.45
69208;SHT31;70114;47.690;8.898;2024-03-29T12:57:31;22.01;40.67
69208;SHT31;70114;47.690;8.898;2024-03-29T12:59:56;21.67;39.83
69208;SHT31;70114;47.690;8.898;2024-03-29T13:02:21;21.79;40.19
69208;SHT31;70114;47.690;8.898;2024-03-29T13:04:48;21.68;39.63
69208;SHT31;70114;47.690;8.898;2024-03-29T13:07:14;21.31;38.80
69208;SHT31;70114;47.690;8.898;2024-03-29T13:09:40;21.24;40.77
69208;SHT31;70114;47.690;8.898;2024-03-29T13:12:06;21.16;41.02
69208;SHT31;70114;47.690;8.898;2024-03-29T13:14:31;21.02;41.02
69208;SHT31;70114;47.690;8.898;2024-03-29T13:16:57;21.30;41.02
69208;SHT31;70114;47.690;8.898;2024-03-29T13:19:22;22.49;39.73
69208;SHT31;70114;47.690;8.898;2024-03-29T13:21:48;23.11;38.17
69208;SHT31;70114;47.690;8.898;2024-03-29T13:24:13;22.73;38.19
69208;SHT31;70114;47.690;8.898;2024-03-29T13:26:38;23.38;37.38
69208;SHT31;70114;47.690;8.898;2024-03-29T13:29:04;24.14;36.93
69208;SHT31;70114;47.690;8.898;2024-03-29T13:31:29;23.31;35.88
69208;SHT31;70114;47.690;8.898;2024-03-29T13:33:56;22.97;36.81
69208;SHT31;70114;47.690;8.898;2024-03-29T13:36:29;23.35;36.09
69208;SHT31;70114;47.690;8.898;2024-03-29T13:38:55;23.55;36.37
69208;SHT31;70114;47.690;8.898;2024-03-29T13:41:20;24.01;37.35
69208;SHT31;70114;47.690;8.898;2024-03-29T13:43:46;24.38;35.33
69208;SHT31;70114;47.690;8.898;2024-03-29T13:46:12;24.76;34.89
69208;SHT31;70114;47.690;8.898;2024-03-29T13:48:37;24.94;33.74
69208;SHT31;70114;47.690;8.898;2024-03-29T13:51:03;24.75;34.29
69208;SHT31;70114;47.690;8.898;2024-03-29T13:53:29;24.76;33.73
69208;SHT31;70114;47.690;8.898;2024-03-29T13:56:00;25.06;34.73
69208;SHT31;70114;47.690;8.898;2024-03-29T13:58:26;25.41;32.50
69208;SHT31;70114;47.690;8.898;2024-03-29T14:00:53;25.19;33.56
69208;SHT31;70114;47.690;8.898;2024-03-29T14:03:21;25.45;33.91
69208;SHT31;70114;47.690;8.898;2024-03-29T14:05:48;25.71;33.78
69208;SHT31;70114;47.690;8.898;2024-03-29T14:08:13;25.26;32.97
69208;SHT31;70114;47.690;8.898;2024-03-29T14:10:39;25.47;33.10
69208;SHT31;70114;47.690;8.898;2024-03-29T14:13:04;25.69;32.32
69208;SHT31;70114;47.690;8.898;2024-03-29T14:15:30;25.88;32.28
69208;SHT31;70114;47.690;8.898;2024-03-29T14:17:55;26.13;33.29
69208;SHT31;70114;47.690;8.898;2024-03-29T14:20:21;26.24;32.77
69208;SHT31;70114;47.690;8.898;2024-03-29T14:22:47;26.34;33.26
69208;SHT31;70114;47.690;8.898;2024-03-29T14:25:17;26.60;31.36
69208;SHT31;70114;47.690;8.898;2024-03-29T14:27:42;26.33;31.88
69208;SHT31;70114;47.690;8.898;2024-03-29T14:30:20;26.07;33.15
69208;SHT31;70114;47.690;8.898;2024-03-29T14:32:46;25.51;32.17
69208;SHT31;70114;47.690;8.898;2024-03-29T14:35:15;24.96;33.86
69208;SHT31;70114;47.690;8.898;2024-03-29T14:37:41;24.63;35.15
69208;SHT31;70114;47.690;8.898;2024-03-29T14:40:07;24.49;35.89
69208;SHT31;70114;47.690;8.898;2024-03-29T14:42:34;24.27;35.71
69208;SHT31;70114;47.690;8.898;2024-03-29T14:45:02;23.69;35.62
69208;SHT31;70114;47.690;8.898;2024-03-29T14:47:29;23.14;35.79
69208;SHT31;70114;47.690;8.898;2024-03-29T14:49:55;22.60;37.88
69208;SHT31;70114;47.690;8.898;2024-03-29T14:52:20;22.61;37.08
69208;SHT31;70114;47.690;8.898;2024-03-29T14:54:45;22.59;37.70
69208;SHT31;70114;47.690;8.898;2024-03-29T14:57:11;22.30;38.54
69208;SHT31;70114;47.690;8.898;2024-03-29T14:59:37;22.28;37.88
69208;SHT31;70114;47.690;8.898;2024-03-29T15:02:03;21.88;40.40
69208;SHT31;70114;47.690;8.898;2024-03-29T15:04:29;22.02;39.46
69208;SHT31;70114;47.690;8.898;2024-03-29T15:06:54;21.85;39.73
69208;SHT31;70114;47.690;8.898;2024-03-29T15:09:20;21.82;39.26
69208;SHT31;70114;47.690;8.898;2024-03-29T15:11:45;21.23;40.10
69208;SHT31;70114;47.690;8.898;2024-03-29T15:14:11;21.41;40.19
69208;SHT31;70114;47.690;8.898;2024-03-29T15:16:36;21.37;39.12
69208;SHT31;70114;47.690;8.898;2024-03-29T15:19:02;21.09;39.79
69208;SHT31;70114;47.690;8.898;2024-03-29T15:21:28;21.14;39.50
69208;SHT31;70114;47.690;8.898;2024-03-29T15:23:54;21.14;40.17
69208;SHT31;70114;47.690;8.898;2024-03-29T15:26:20;21.14;39.70
69208;SHT31;70114;47.690;8.898;2024-03-29T15:28:46;21.16;40.07
69208;SHT31;70114;47.690;8.898;2024-03-29T15:31:30;21.07;40.41
69208;SHT31;70114;47.690;8.898;2024-03-29T15:33:55;21.03;40.57
69208;SHT31;70114;47.690;8.898;2024-03-29T15:36:21;21.06;41.27
69208;SHT31;70114;47.690;8.898;2024-03-29T15:38:49;21.04;40.82
69208;SHT31;70114;47.690;8.898;2024-03-29T15:41:27;20.93;39.45